sensor_id;sensor_type;location;lat;lon;timestamp;P1;durP1;ratioP1;P2;durP2;ratioP2
28613;SDS011;15806;53.548;9.964;2023-04-23T00:00:33;8.47;;;5.07;;
28613;SDS011;15806;53.548;9.964;2023-04-23T00:02:14;13.63;;;5.80;;
28613;SDS011;15806;53.548;9.964;2023-04-23T00:03:56;7.68;;;4.82;;
28613;SDS011;15806;53.548;9.964;2023-04-23T00:07:18;9.60;;;4.65;;
28613;SDS011;15806;53.548;9.964;2023-04-23T00:08:59;7.75;;;4.18;;
28613;SDS011;15806;53.548;9.964;2023-04-23T00:10:40;6.93;;;4.40;;
28613;SDS011;15806;53.548;9.964;2023-04-23T00:12:21;8.83;;;4.97;;
28613;SDS011;15806;53.548;9.964;2023-04-23T00:14:02;8.48;;;4.50;;
28613;SDS011;15806;53.548;9.964;2023-04-23T00:15:42;7.43;;;4.40;;
28613;SDS011;15806;53.548;9.964;2023-04-23T00:17:23;11.50;;;4.73;;
28613;SDS011;15806;53.548;9.964;2023-04-23T00:19:03;11.80;;;5.30;;
28613;SDS011;15806;53.548;9.964;2023-04-23T00:20:44;8.80;;;5.10;;
28613;SDS011;15806;53.548;9.964;2023-04-23T00:22:24;8.77;;;4.57;;
28613;SDS011;15806;53.548;9.964;2023-04-23T00:24:05;9.57;;;5.73;;
28613;SDS011;15806;53.548;9.964;2023-04-23T00:25:46;11.32;;;5.85;;
28613;SDS011;15806;53.548;9.964;2023-04-23T00:27:26;8.13;;;5.40;;
28613;SDS011;15806;53.548;9.964;2023-04-23T00:29:07;11.23;;;6.10;;
28613;SDS011;15806;53.548;9.964;2023-04-23T00:30:47;8.77;;;5.83;;
28613;SDS011;15806;53.548;9.964;2023-04-23T00:32:28;9.87;;;5.37;;
28613;SDS011;15806;53.548;9.964;2023-04-23T00:34:09;12.83;;;6.27;;
28613;SDS011;15806;53.548;9.964;2023-04-23T00:35:49;7.73;;;5.20;;
28613;SDS011;15806;53.548;9.964;2023-04-23T00:37:30;11.07;;;6.87;;
28613;SDS011;15806;53.548;9.964;2023-04-23T00:39:10;12.50;;;6.57;;
28613;SDS011;15806;53.548;9.964;2023-04-23T00:40:51;10.67;;;6.17;;
28613;SDS011;15806;53.548;9.964;2023-04-23T00:42:31;11.80;;;6.87;;
28613;SDS011;15806;53.548;9.964;2023-04-23T00:44:12;11.37;;;6.97;;
28613;SDS011;15806;53.548;9.964;2023-04-23T00:45:52;13.80;;;7.23;;
28613;SDS011;15806;53.548;9.964;2023-04-23T00:47:33;12.07;;;6.63;;
28613;SDS011;15806;53.548;9.964;2023-04-23T00:49:14;12.32;;;7.18;;
28613;SDS011;15806;53.548;9.964;2023-04-23T00:50:57;12.68;;;7.30;;
28613;SDS011;15806;53.548;9.964;2023-04-23T00:52:38;15.07;;;7.18;;
28613;SDS011;15806;53.548;9.964;2023-04-23T00:54:19;15.80;;;7.63;;
28613;SDS011;15806;53.548;9.964;2023-04-23T00:56:00;17.97;;;7.63;;
28613;SDS011;15806;53.548;9.964;2023-04-23T00:57:43;13.52;;;7.45;;
28613;SDS011;15806;53.548;9.964;2023-04-23T00:59:27;12.33;;;7.53;;
28613;SDS011;15806;53.548;9.964;2023-04-23T01:01:08;12.52;;;7.15;;
28613;SDS011;15806;53.548;9.964;2023-04-23T01:02:48;13.13;;;7.77;;
28613;SDS011;15806;53.548;9.964;2023-04-23T01:04:29;17.07;;;9.00;;
28613;SDS011;15806;53.548;9.964;2023-04-23T01:06:10;13.52;;;7.82;;
28613;SDS011;15806;53.548;9.964;2023-04-23T01:07:51;10.87;;;6.73;;
28613;SDS011;15806;53.548;9.964;2023-04-23T01:09:32;15.27;;;8.20;;
28613;SDS011;15806;53.548;9.964;2023-04-23T01:11:13;13.27;;;8.40;;
28613;SDS011;15806;53.548;9.964;2023-04-23T01:12:54;13.25;;;8.07;;
28613;SDS011;15806;53.548;9.964;2023-04-23T01:14:35;14.37;;;7.73;;
28613;SDS011;15806;53.548;9.964;2023-04-23T01:17:57;16.58;;;8.35;;
28613;SDS011;15806;53.548;9.964;2023-04-23T01:19:37;16.43;;;8.67;;
28613;SDS011;15806;53.548;9.964;2023-04-23T01:21:18;14.38;;;8.25;;
28613;SDS011;15806;53.548;9.964;2023-04-23T01:23:00;13.57;;;7.70;;
28613;SDS011;15806;53.548;9.964;2023-04-23T01:24:41;11.90;;;6.97;;
28613;SDS011;15806;53.548;9.964;2023-04-23T01:26:23;17.43;;;6.93;;
28613;SDS011;15806;53.548;9.964;2023-04-23T01:29:44;13.77;;;8.25;;
28613;SDS011;15806;53.548;9.964;2023-04-23T01:31:27;14.95;;;8.13;;
28613;SDS011;15806;53.548;9.964;2023-04-23T01:34:49;12.90;;;7.57;;
28613;SDS011;15806;53.548;9.964;2023-04-23T01:36:31;13.45;;;7.18;;
28613;SDS011;15806;53.548;9.964;2023-04-23T01:38:12;13.68;;;8.20;;
28613;SDS011;15806;53.548;9.964;2023-04-23T01:39:53;12.38;;;7.68;;
28613;SDS011;15806;53.548;9.964;2023-04-23T01:41:34;13.03;;;7.23;;
28613;SDS011;15806;53.548;9.964;2023-04-23T01:43:15;11.90;;;6.78;;
28613;SDS011;15806;53.548;9.964;2023-04-23T01:44:56;13.33;;;8.10;;
28613;SDS011;15806;53.548;9.964;2023-04-23T01:46:37;13.00;;;7.70;;
28613;SDS011;15806;53.548;9.964;2023-04-23T01:48:17;11.67;;;6.60;;
28613;SDS011;15806;53.548;9.964;2023-04-23T01:49:58;13.40;;;7.43;;
28613;SDS011;15806;53.548;9.964;2023-04-23T01:51:38;11.47;;;7.67;;
28613;SDS011;15806;53.548;9.964;2023-04-23T01:53:19;13.13;;;7.30;;
28613;SDS011;15806;53.548;9.964;2023-04-23T01:55:00;12.70;;;7.27;;
28613;SDS011;15806;53.548;9.964;2023-04-23T01:56:40;11.80;;;7.37;;
28613;SDS011;15806;53.548;9.964;2023-04-23T01:58:21;10.43;;;6.00;;
28613;SDS011;15806;53.548;9.964;2023-04-23T02:00:09;10.10;;;5.90;;
28613;SDS011;15806;53.548;9.964;2023-04-23T02:01:50;11.38;;;6.50;;
28613;SDS011;15806;53.548;9.964;2023-04-23T02:03:31;11.17;;;6.53;;
28613;SDS011;15806;53.548;9.964;2023-04-23T02:05:17;12.02;;;6.38;;
28613;SDS011;15806;53.548;9.964;2023-04-23T02:06:58;14.13;;;7.47;;
28613;SDS011;15806;53.548;9.964;2023-04-23T02:08:39;17.97;;;8.30;;
28613;SDS011;15806;53.548;9.964;2023-04-23T02:10:20;15.48;;;8.63;;
28613;SDS011;15806;53.548;9.964;2023-04-23T02:12:01;16.77;;;9.60;;
28613;SDS011;15806;53.548;9.964;2023-04-23T02:13:41;22.43;;;10.80;;
28613;SDS011;15806;53.548;9.964;2023-04-23T02:15:22;22.93;;;11.97;;
28613;SDS011;15806;53.548;9.964;2023-04-23T02:17:02;22.93;;;11.37;;
28613;SDS011;15806;53.548;9.964;2023-04-23T02:18:43;24.03;;;11.90;;
28613;SDS011;15806;53.548;9.964;2023-04-23T02:20:24;25.13;;;12.83;;
28613;SDS011;15806;53.548;9.964;2023-04-23T02:22:04;23.73;;;11.60;;
28613;SDS011;15806;53.548;9.964;2023-04-23T02:23:45;27.53;;;13.67;;
28613;SDS011;15806;53.548;9.964;2023-04-23T02:25:25;26.73;;;14.23;;
28613;SDS011;15806;53.548;9.964;2023-04-23T02:27:06;39.00;;;16.37;;
28613;SDS011;15806;53.548;9.964;2023-04-23T02:28:47;31.25;;;14.93;;
28613;SDS011;15806;53.548;9.964;2023-04-23T02:30:28;32.90;;;16.07;;
28613;SDS011;15806;53.548;9.964;2023-04-23T02:32:08;34.30;;;15.70;;
28613;SDS011;15806;53.548;9.964;2023-04-23T02:33:49;36.77;;;17.27;;
28613;SDS011;15806;53.548;9.964;2023-04-23T02:35:29;34.57;;;17.17;;
28613;SDS011;15806;53.548;9.964;2023-04-23T02:37:10;32.33;;;15.93;;
28613;SDS011;15806;53.548;9.964;2023-04-23T02:38:50;37.80;;;17.00;;
28613;SDS011;15806;53.548;9.964;2023-04-23T02:40:31;33.33;;;16.50;;
28613;SDS011;15806;53.548;9.964;2023-04-23T02:42:12;33.17;;;15.53;;
28613;SDS011;15806;53.548;9.964;2023-04-23T02:43:52;30.38;;;14.65;;
28613;SDS011;15806;53.548;9.964;2023-04-23T02:45:33;34.00;;;15.23;;
28613;SDS011;15806;53.548;9.964;2023-04-23T02:47:13;27.17;;;13.27;;
28613;SDS011;15806;53.548;9.964;2023-04-23T02:48:54;28.13;;;12.93;;
28613;SDS011;15806;53.548;9.964;2023-04-23T02:50:34;29.37;;;14.37;;
28613;SDS011;15806;53.548;9.964;2023-04-23T02:52:15;23.10;;;12.27;;
28613;SDS011;15806;53.548;9.964;2023-04-23T02:53:56;28.20;;;13.30;;
28613;SDS011;15806;53.548;9.964;2023-04-23T02:55:37;26.90;;;12.70;;
28613;SDS011;15806;53.548;9.964;2023-04-23T02:57:17;25.23;;;12.20;;
28613;SDS011;15806;53.548;9.964;2023-04-23T02:58:58;26.90;;;12.87;;
28613;SDS011;15806;53.548;9.964;2023-04-23T03:00:39;23.50;;;11.57;;
28613;SDS011;15806;53.548;9.964;2023-04-23T03:02:19;25.77;;;11.87;;
28613;SDS011;15806;53.548;9.964;2023-04-23T03:04:00;28.23;;;13.17;;
28613;SDS011;15806;53.548;9.964;2023-04-23T03:05:41;28.05;;;11.95;;
28613;SDS011;15806;53.548;9.964;2023-04-23T03:07:21;23.70;;;12.30;;
28613;SDS011;15806;53.548;9.964;2023-04-23T03:09:02;28.60;;;13.27;;
28613;SDS011;15806;53.548;9.964;2023-04-23T03:10:43;29.07;;;13.47;;
28613;SDS011;15806;53.548;9.964;2023-04-23T03:12:23;27.13;;;13.20;;
28613;SDS011;15806;53.548;9.964;2023-04-23T03:14:04;25.20;;;12.67;;
28613;SDS011;15806;53.548;9.964;2023-04-23T03:15:44;30.37;;;13.17;;
28613;SDS011;15806;53.548;9.964;2023-04-23T03:17:25;28.67;;;12.20;;
28613;SDS011;15806;53.548;9.964;2023-04-23T03:19:05;28.27;;;12.53;;
28613;SDS011;15806;53.548;9.964;2023-04-23T03:20:46;26.00;;;11.67;;
28613;SDS011;15806;53.548;9.964;2023-04-23T03:22:26;27.07;;;12.43;;
28613;SDS011;15806;53.548;9.964;2023-04-23T03:24:07;31.97;;;14.10;;
28613;SDS011;15806;53.548;9.964;2023-04-23T03:25:49;27.05;;;12.57;;
28613;SDS011;15806;53.548;9.964;2023-04-23T03:27:29;28.40;;;12.60;;
28613;SDS011;15806;53.548;9.964;2023-04-23T03:29:10;23.33;;;12.00;;
28613;SDS011;15806;53.548;9.964;2023-04-23T03:30:50;24.53;;;12.10;;
28613;SDS011;15806;53.548;9.964;2023-04-23T03:32:31;26.67;;;12.20;;
28613;SDS011;15806;53.548;9.964;2023-04-23T03:34:11;24.30;;;12.03;;
28613;SDS011;15806;53.548;9.964;2023-04-23T03:35:52;27.10;;;12.63;;
28613;SDS011;15806;53.548;9.964;2023-04-23T03:37:32;27.23;;;12.57;;
28613;SDS011;15806;53.548;9.964;2023-04-23T03:39:13;25.40;;;12.00;;
28613;SDS011;15806;53.548;9.964;2023-04-23T03:40:54;24.35;;;11.43;;
28613;SDS011;15806;53.548;9.964;2023-04-23T03:42:34;24.33;;;11.87;;
28613;SDS011;15806;53.548;9.964;2023-04-23T03:44:15;20.67;;;10.57;;
28613;SDS011;15806;53.548;9.964;2023-04-23T03:45:55;19.93;;;9.57;;
28613;SDS011;15806;53.548;9.964;2023-04-23T03:47:36;21.20;;;10.10;;
28613;SDS011;15806;53.548;9.964;2023-04-23T03:49:16;21.37;;;10.33;;
28613;SDS011;15806;53.548;9.964;2023-04-23T03:50:57;18.60;;;9.33;;
28613;SDS011;15806;53.548;9.964;2023-04-23T03:52:37;19.13;;;9.47;;
28613;SDS011;15806;53.548;9.964;2023-04-23T03:54:18;21.40;;;10.10;;
28613;SDS011;15806;53.548;9.964;2023-04-23T03:55:58;20.40;;;10.23;;
28613;SDS011;15806;53.548;9.964;2023-04-23T03:57:39;19.47;;;9.47;;
28613;SDS011;15806;53.548;9.964;2023-04-23T03:59:19;23.23;;;8.90;;
28613;SDS011;15806;53.548;9.964;2023-04-23T04:01:00;24.17;;;10.63;;
28613;SDS011;15806;53.548;9.964;2023-04-23T04:02:40;20.37;;;9.17;;
28613;SDS011;15806;53.548;9.964;2023-04-23T04:04:21;19.43;;;8.37;;
28613;SDS011;15806;53.548;9.964;2023-04-23T04:06:01;22.70;;;9.37;;
28613;SDS011;15806;53.548;9.964;2023-04-23T04:07:42;22.23;;;10.33;;
28613;SDS011;15806;53.548;9.964;2023-04-23T04:09:22;20.57;;;10.00;;
28613;SDS011;15806;53.548;9.964;2023-04-23T04:11:03;20.70;;;9.40;;
28613;SDS011;15806;53.548;9.964;2023-04-23T04:12:44;20.00;;;9.20;;
28613;SDS011;15806;53.548;9.964;2023-04-23T04:14:24;23.57;;;8.53;;
28613;SDS011;15806;53.548;9.964;2023-04-23T04:16:05;19.57;;;8.20;;
28613;SDS011;15806;53.548;9.964;2023-04-23T04:17:45;17.93;;;8.83;;
28613;SDS011;15806;53.548;9.964;2023-04-23T04:19:26;15.30;;;8.13;;
28613;SDS011;15806;53.548;9.964;2023-04-23T04:21:07;17.48;;;8.02;;
28613;SDS011;15806;53.548;9.964;2023-04-23T04:22:47;18.00;;;8.03;;
28613;SDS011;15806;53.548;9.964;2023-04-23T04:24:28;15.27;;;7.77;;
28613;SDS011;15806;53.548;9.964;2023-04-23T04:26:08;23.00;;;8.30;;
28613;SDS011;15806;53.548;9.964;2023-04-23T04:27:49;17.50;;;7.80;;
28613;SDS011;15806;53.548;9.964;2023-04-23T04:29:30;20.00;;;8.30;;
28613;SDS011;15806;53.548;9.964;2023-04-23T04:31:10;19.13;;;7.77;;
28613;SDS011;15806;53.548;9.964;2023-04-23T04:32:52;14.07;;;6.68;;
28613;SDS011;15806;53.548;9.964;2023-04-23T04:34:32;12.73;;;6.43;;
28613;SDS011;15806;53.548;9.964;2023-04-23T04:36:13;14.93;;;7.23;;
28613;SDS011;15806;53.548;9.964;2023-04-23T04:37:53;13.70;;;6.97;;
28613;SDS011;15806;53.548;9.964;2023-04-23T04:39:34;11.53;;;5.97;;
28613;SDS011;15806;53.548;9.964;2023-04-23T04:41:14;15.60;;;6.90;;
28613;SDS011;15806;53.548;9.964;2023-04-23T04:42:55;14.73;;;6.43;;
28613;SDS011;15806;53.548;9.964;2023-04-23T04:44:35;13.07;;;6.23;;
28613;SDS011;15806;53.548;9.964;2023-04-23T04:46:17;11.77;;;6.18;;
28613;SDS011;15806;53.548;9.964;2023-04-23T04:47:57;13.53;;;6.47;;
28613;SDS011;15806;53.548;9.964;2023-04-23T04:49:38;15.60;;;5.90;;
28613;SDS011;15806;53.548;9.964;2023-04-23T04:51:18;11.33;;;5.77;;
28613;SDS011;15806;53.548;9.964;2023-04-23T04:53:00;14.07;;;5.15;;
28613;SDS011;15806;53.548;9.964;2023-04-23T04:54:40;9.20;;;4.97;;
28613;SDS011;15806;53.548;9.964;2023-04-23T04:56:21;16.37;;;6.20;;
28613;SDS011;15806;53.548;9.964;2023-04-23T04:58:01;8.77;;;5.23;;
28613;SDS011;15806;53.548;9.964;2023-04-23T04:59:42;9.73;;;4.63;;
28613;SDS011;15806;53.548;9.964;2023-04-23T05:01:23;9.53;;;5.07;;
28613;SDS011;15806;53.548;9.964;2023-04-23T05:03:04;9.60;;;4.95;;
28613;SDS011;15806;53.548;9.964;2023-04-23T05:04:44;9.37;;;4.57;;
28613;SDS011;15806;53.548;9.964;2023-04-23T05:06:25;10.03;;;4.70;;
28613;SDS011;15806;53.548;9.964;2023-04-23T05:08:05;10.10;;;4.73;;
28613;SDS011;15806;53.548;9.964;2023-04-23T05:09:46;8.67;;;4.07;;
28613;SDS011;15806;53.548;9.964;2023-04-23T05:11:26;8.00;;;4.50;;
28613;SDS011;15806;53.548;9.964;2023-04-23T05:13:07;8.10;;;3.93;;
28613;SDS011;15806;53.548;9.964;2023-04-23T05:14:47;9.17;;;4.17;;
28613;SDS011;15806;53.548;9.964;2023-04-23T05:16:28;14.30;;;4.63;;
28613;SDS011;15806;53.548;9.964;2023-04-23T05:18:09;8.93;;;4.40;;
28613;SDS011;15806;53.548;9.964;2023-04-23T05:19:49;8.88;;;4.25;;
28613;SDS011;15806;53.548;9.964;2023-04-23T05:21:30;8.37;;;3.50;;
28613;SDS011;15806;53.548;9.964;2023-04-23T05:23:10;13.03;;;4.23;;
28613;SDS011;15806;53.548;9.964;2023-04-23T05:24:51;11.23;;;4.30;;
28613;SDS011;15806;53.548;9.964;2023-04-23T05:26:31;12.27;;;4.50;;
28613;SDS011;15806;53.548;9.964;2023-04-23T05:28:12;8.77;;;3.87;;
28613;SDS011;15806;53.548;9.964;2023-04-23T05:29:52;12.77;;;4.20;;
28613;SDS011;15806;53.548;9.964;2023-04-23T05:31:33;11.83;;;4.30;;
28613;SDS011;15806;53.548;9.964;2023-04-23T05:33:13;10.60;;;4.17;;
28613;SDS011;15806;53.548;9.964;2023-04-23T05:34:54;12.37;;;4.83;;
28613;SDS011;15806;53.548;9.964;2023-04-23T05:36:34;10.57;;;5.90;;
28613;SDS011;15806;53.548;9.964;2023-04-23T05:38:15;8.47;;;4.57;;
28613;SDS011;15806;53.548;9.964;2023-04-23T05:39:56;10.90;;;4.93;;
28613;SDS011;15806;53.548;9.964;2023-04-23T05:41:36;8.23;;;4.20;;
28613;SDS011;15806;53.548;9.964;2023-04-23T05:43:17;10.77;;;4.33;;
28613;SDS011;15806;53.548;9.964;2023-04-23T05:44:57;9.20;;;4.63;;
28613;SDS011;15806;53.548;9.964;2023-04-23T05:46:38;12.77;;;5.83;;
28613;SDS011;15806;53.548;9.964;2023-04-23T05:48:18;11.73;;;5.03;;
28613;SDS011;15806;53.548;9.964;2023-04-23T05:49:59;12.23;;;5.27;;
28613;SDS011;15806;53.548;9.964;2023-04-23T05:51:39;8.77;;;4.70;;
28613;SDS011;15806;53.548;9.964;2023-04-23T05:53:20;11.03;;;5.20;;
28613;SDS011;15806;53.548;9.964;2023-04-23T05:55:00;12.23;;;4.97;;
28613;SDS011;15806;53.548;9.964;2023-04-23T05:56:41;11.63;;;4.50;;
28613;SDS011;15806;53.548;9.964;2023-04-23T05:58:22;11.10;;;5.00;;
28613;SDS011;15806;53.548;9.964;2023-04-23T06:00:03;17.08;;;6.75;;
28613;SDS011;15806;53.548;9.964;2023-04-23T06:03:25;12.40;;;5.03;;
28613;SDS011;15806;53.548;9.964;2023-04-23T06:05:06;11.63;;;4.93;;
28613;SDS011;15806;53.548;9.964;2023-04-23T06:06:46;10.65;;;5.30;;
28613;SDS011;15806;53.548;9.964;2023-04-23T06:08:27;12.20;;;5.33;;
28613;SDS011;15806;53.548;9.964;2023-04-23T06:10:07;11.03;;;5.77;;
28613;SDS011;15806;53.548;9.964;2023-04-23T06:11:48;10.87;;;5.80;;
28613;SDS011;15806;53.548;9.964;2023-04-23T06:13:31;9.82;;;5.28;;
28613;SDS011;15806;53.548;9.964;2023-04-23T06:15:12;10.43;;;4.93;;
28613;SDS011;15806;53.548;9.964;2023-04-23T06:16:52;12.10;;;5.67;;
28613;SDS011;15806;53.548;9.964;2023-04-23T06:18:33;8.60;;;4.60;;
28613;SDS011;15806;53.548;9.964;2023-04-23T06:20:14;10.90;;;4.80;;
28613;SDS011;15806;53.548;9.964;2023-04-23T06:21:55;9.33;;;4.70;;
28613;SDS011;15806;53.548;9.964;2023-04-23T06:23:35;13.20;;;5.30;;
28613;SDS011;15806;53.548;9.964;2023-04-23T06:25:16;9.60;;;4.87;;
28613;SDS011;15806;53.548;9.964;2023-04-23T06:26:56;9.33;;;4.17;;
28613;SDS011;15806;53.548;9.964;2023-04-23T06:28:37;8.20;;;4.43;;
28613;SDS011;15806;53.548;9.964;2023-04-23T06:30:17;8.20;;;3.93;;
28613;SDS011;15806;53.548;9.964;2023-04-23T06:32:00;10.73;;;4.27;;
28613;SDS011;15806;53.548;9.964;2023-04-23T06:33:41;6.47;;;3.60;;
28613;SDS011;15806;53.548;9.964;2023-04-23T06:35:22;13.07;;;4.33;;
28613;SDS011;15806;53.548;9.964;2023-04-23T06:37:02;8.27;;;3.20;;
28613;SDS011;15806;53.548;9.964;2023-04-23T06:38:46;7.30;;;3.33;;
28613;SDS011;15806;53.548;9.964;2023-04-23T06:40:26;7.13;;;3.03;;
28613;SDS011;15806;53.548;9.964;2023-04-23T06:42:07;12.07;;;3.63;;
28613;SDS011;15806;53.548;9.964;2023-04-23T06:43:47;9.57;;;3.37;;
28613;SDS011;15806;53.548;9.964;2023-04-23T06:45:28;8.20;;;3.40;;
28613;SDS011;15806;53.548;9.964;2023-04-23T06:47:10;8.75;;;2.90;;
28613;SDS011;15806;53.548;9.964;2023-04-23T06:50:31;6.43;;;3.38;;
28613;SDS011;15806;53.548;9.964;2023-04-23T06:52:11;8.17;;;2.60;;
28613;SDS011;15806;53.548;9.964;2023-04-23T06:53:52;7.47;;;3.43;;
28613;SDS011;15806;53.548;9.964;2023-04-23T06:55:33;6.97;;;3.00;;
28613;SDS011;15806;53.548;9.964;2023-04-23T06:57:14;7.35;;;3.55;;
28613;SDS011;15806;53.548;9.964;2023-04-23T06:58:55;8.77;;;3.30;;
28613;SDS011;15806;53.548;9.964;2023-04-23T07:00:35;7.70;;;3.53;;
28613;SDS011;15806;53.548;9.964;2023-04-23T07:02:16;12.97;;;4.20;;
28613;SDS011;15806;53.548;9.964;2023-04-23T07:03:56;10.30;;;3.83;;
28613;SDS011;15806;53.548;9.964;2023-04-23T07:05:37;8.63;;;3.77;;
28613;SDS011;15806;53.548;9.964;2023-04-23T07:07:17;6.40;;;3.17;;
28613;SDS011;15806;53.548;9.964;2023-04-23T07:08:59;10.53;;;4.73;;
28613;SDS011;15806;53.548;9.964;2023-04-23T07:10:40;7.85;;;4.00;;
28613;SDS011;15806;53.548;9.964;2023-04-23T07:12:20;10.17;;;3.50;;
28613;SDS011;15806;53.548;9.964;2023-04-23T07:14:01;10.77;;;3.33;;
28613;SDS011;15806;53.548;9.964;2023-04-23T07:15:42;7.03;;;3.17;;
28613;SDS011;15806;53.548;9.964;2023-04-23T07:17:23;5.40;;;3.30;;
28613;SDS011;15806;53.548;9.964;2023-04-23T07:19:03;7.03;;;3.60;;
28613;SDS011;15806;53.548;9.964;2023-04-23T07:20:44;7.77;;;3.40;;
28613;SDS011;15806;53.548;9.964;2023-04-23T07:22:24;6.93;;;3.80;;
28613;SDS011;15806;53.548;9.964;2023-04-23T07:24:05;9.57;;;4.30;;
28613;SDS011;15806;53.548;9.964;2023-04-23T07:25:46;9.10;;;3.67;;
28613;SDS011;15806;53.548;9.964;2023-04-23T07:27:26;8.33;;;3.70;;
28613;SDS011;15806;53.548;9.964;2023-04-23T07:29:07;7.77;;;4.10;;
28613;SDS011;15806;53.548;9.964;2023-04-23T07:30:47;7.33;;;3.40;;
28613;SDS011;15806;53.548;9.964;2023-04-23T07:32:28;8.20;;;4.50;;
28613;SDS011;15806;53.548;9.964;2023-04-23T07:34:08;8.77;;;4.37;;
28613;SDS011;15806;53.548;9.964;2023-04-23T07:35:49;9.33;;;4.23;;
28613;SDS011;15806;53.548;9.964;2023-04-23T07:37:29;6.70;;;3.80;;
28613;SDS011;15806;53.548;9.964;2023-04-23T07:39:10;9.07;;;4.33;;
28613;SDS011;15806;53.548;9.964;2023-04-23T07:40:50;11.93;;;4.37;;
28613;SDS011;15806;53.548;9.964;2023-04-23T07:42:31;10.40;;;4.27;;
28613;SDS011;15806;53.548;9.964;2023-04-23T07:44:11;7.23;;;3.67;;
28613;SDS011;15806;53.548;9.964;2023-04-23T07:45:52;9.47;;;3.53;;
28613;SDS011;15806;53.548;9.964;2023-04-23T07:47:33;7.63;;;3.53;;
28613;SDS011;15806;53.548;9.964;2023-04-23T07:49:13;9.77;;;3.90;;
28613;SDS011;15806;53.548;9.964;2023-04-23T07:50:55;9.07;;;4.63;;
28613;SDS011;15806;53.548;9.964;2023-04-23T07:52:35;10.45;;;3.85;;
28613;SDS011;15806;53.548;9.964;2023-04-23T07:54:16;7.60;;;3.97;;
28613;SDS011;15806;53.548;9.964;2023-04-23T07:55:56;7.73;;;4.10;;
28613;SDS011;15806;53.548;9.964;2023-04-23T07:57:37;7.87;;;3.67;;
28613;SDS011;15806;53.548;9.964;2023-04-23T07:59:17;6.90;;;3.53;;
28613;SDS011;15806;53.548;9.964;2023-04-23T08:00:58;10.57;;;3.70;;
28613;SDS011;15806;53.548;9.964;2023-04-23T08:02:38;9.13;;;4.17;;
28613;SDS011;15806;53.548;9.964;2023-04-23T08:04:19;7.57;;;3.70;;
28613;SDS011;15806;53.548;9.964;2023-04-23T08:05:59;12.83;;;4.33;;
28613;SDS011;15806;53.548;9.964;2023-04-23T08:07:40;9.80;;;4.20;;
28613;SDS011;15806;53.548;9.964;2023-04-23T08:09:20;8.97;;;3.43;;
28613;SDS011;15806;53.548;9.964;2023-04-23T08:11:01;8.80;;;4.40;;
28613;SDS011;15806;53.548;9.964;2023-04-23T08:12:41;9.57;;;4.50;;
28613;SDS011;15806;53.548;9.964;2023-04-23T08:14:23;12.95;;;5.05;;
28613;SDS011;15806;53.548;9.964;2023-04-23T08:16:03;9.23;;;4.57;;
28613;SDS011;15806;53.548;9.964;2023-04-23T08:17:44;8.17;;;4.07;;
28613;SDS011;15806;53.548;9.964;2023-04-23T08:19:24;9.97;;;4.10;;
28613;SDS011;15806;53.548;9.964;2023-04-23T08:21:05;9.37;;;4.13;;
28613;SDS011;15806;53.548;9.964;2023-04-23T08:22:46;8.17;;;4.20;;
28613;SDS011;15806;53.548;9.964;2023-04-23T08:24:29;7.00;;;4.10;;
28613;SDS011;15806;53.548;9.964;2023-04-23T08:26:10;8.07;;;4.13;;
28613;SDS011;15806;53.548;9.964;2023-04-23T08:27:50;9.27;;;4.30;;
28613;SDS011;15806;53.548;9.964;2023-04-23T08:29:31;8.53;;;4.47;;
28613;SDS011;15806;53.548;9.964;2023-04-23T08:31:11;14.83;;;4.23;;
28613;SDS011;15806;53.548;9.964;2023-04-23T08:34:33;7.80;;;3.70;;
28613;SDS011;15806;53.548;9.964;2023-04-23T08:36:14;6.87;;;3.93;;
28613;SDS011;15806;53.548;9.964;2023-04-23T08:37:54;6.60;;;3.93;;
28613;SDS011;15806;53.548;9.964;2023-04-23T08:39:35;7.77;;;3.70;;
28613;SDS011;15806;53.548;9.964;2023-04-23T08:41:16;9.90;;;4.63;;
28613;SDS011;15806;53.548;9.964;2023-04-23T08:43:01;7.90;;;3.90;;
28613;SDS011;15806;53.548;9.964;2023-04-23T08:44:45;8.50;;;4.30;;
28613;SDS011;15806;53.548;9.964;2023-04-23T08:46:26;8.23;;;3.83;;
28613;SDS011;15806;53.548;9.964;2023-04-23T08:48:10;8.90;;;4.18;;
28613;SDS011;15806;53.548;9.964;2023-04-23T08:49:53;8.38;;;4.22;;
28613;SDS011;15806;53.548;9.964;2023-04-23T08:51:34;7.50;;;4.05;;
28613;SDS011;15806;53.548;9.964;2023-04-23T08:53:17;8.40;;;4.22;;
28613;SDS011;15806;53.548;9.964;2023-04-23T08:55:00;9.23;;;4.57;;
28613;SDS011;15806;53.548;9.964;2023-04-23T08:56:43;8.48;;;3.72;;
28613;SDS011;15806;53.548;9.964;2023-04-23T09:00:06;7.43;;;3.83;;
28613;SDS011;15806;53.548;9.964;2023-04-23T09:01:48;9.13;;;4.07;;
28613;SDS011;15806;53.548;9.964;2023-04-23T09:03:29;10.48;;;3.90;;
28613;SDS011;15806;53.548;9.964;2023-04-23T09:05:10;6.83;;;3.60;;
28613;SDS011;15806;53.548;9.964;2023-04-23T09:06:51;9.57;;;4.40;;
28613;SDS011;15806;53.548;9.964;2023-04-23T09:08:32;7.30;;;3.90;;
28613;SDS011;15806;53.548;9.964;2023-04-23T09:10:13;8.20;;;3.72;;
28613;SDS011;15806;53.548;9.964;2023-04-23T09:11:54;9.93;;;4.67;;
28613;SDS011;15806;53.548;9.964;2023-04-23T09:13:38;8.05;;;3.97;;
28613;SDS011;15806;53.548;9.964;2023-04-23T09:15:18;8.40;;;4.03;;
28613;SDS011;15806;53.548;9.964;2023-04-23T09:16:59;7.70;;;4.20;;
28613;SDS011;15806;53.548;9.964;2023-04-23T09:22:03;7.75;;;4.38;;
28613;SDS011;15806;53.548;9.964;2023-04-23T09:23:43;9.93;;;4.43;;
28613;SDS011;15806;53.548;9.964;2023-04-23T09:25:24;7.60;;;4.17;;
28613;SDS011;15806;53.548;9.964;2023-04-23T09:27:05;9.03;;;4.87;;
28613;SDS011;15806;53.548;9.964;2023-04-23T09:28:45;8.07;;;4.33;;
28613;SDS011;15806;53.548;9.964;2023-04-23T09:30:28;9.68;;;4.45;;
28613;SDS011;15806;53.548;9.964;2023-04-23T09:32:09;7.93;;;4.43;;
28613;SDS011;15806;53.548;9.964;2023-04-23T09:33:50;17.53;;;5.03;;
28613;SDS011;15806;53.548;9.964;2023-04-23T09:35:31;10.48;;;4.57;;
28613;SDS011;15806;53.548;9.964;2023-04-23T09:37:13;8.93;;;4.30;;
28613;SDS011;15806;53.548;9.964;2023-04-23T09:38:57;9.20;;;4.15;;
28613;SDS011;15806;53.548;9.964;2023-04-23T09:40:38;7.70;;;4.40;;
28613;SDS011;15806;53.548;9.964;2023-04-23T09:42:20;8.10;;;5.10;;
28613;SDS011;15806;53.548;9.964;2023-04-23T09:44:04;8.20;;;4.35;;
28613;SDS011;15806;53.548;9.964;2023-04-23T09:45:48;9.93;;;4.40;;
28613;SDS011;15806;53.548;9.964;2023-04-23T09:47:32;9.88;;;4.85;;
28613;SDS011;15806;53.548;9.964;2023-04-23T09:49:13;11.07;;;4.72;;
28613;SDS011;15806;53.548;9.964;2023-04-23T09:50:54;8.30;;;5.15;;
28613;SDS011;15806;53.548;9.964;2023-04-23T09:52:38;12.53;;;4.93;;
28613;SDS011;15806;53.548;9.964;2023-04-23T09:54:20;8.13;;;4.22;;
28613;SDS011;15806;53.548;9.964;2023-04-23T09:56:01;10.95;;;4.85;;
28613;SDS011;15806;53.548;9.964;2023-04-23T09:57:43;8.13;;;4.87;;
28613;SDS011;15806;53.548;9.964;2023-04-23T09:59:27;9.88;;;4.82;;
28613;SDS011;15806;53.548;9.964;2023-04-23T10:01:09;10.00;;;5.15;;
28613;SDS011;15806;53.548;9.964;2023-04-23T10:02:50;9.47;;;5.07;;
28613;SDS011;15806;53.548;9.964;2023-04-23T10:04:31;13.82;;;4.95;;
28613;SDS011;15806;53.548;9.964;2023-04-23T10:06:13;7.85;;;4.70;;
28613;SDS011;15806;53.548;9.964;2023-04-23T10:07:54;10.17;;;4.97;;
28613;SDS011;15806;53.548;9.964;2023-04-23T10:11:16;12.48;;;4.60;;
28613;SDS011;15806;53.548;9.964;2023-04-23T10:12:56;10.27;;;5.43;;
28613;SDS011;15806;53.548;9.964;2023-04-23T10:14:38;11.00;;;5.85;;
28613;SDS011;15806;53.548;9.964;2023-04-23T10:16:20;11.38;;;5.20;;
28613;SDS011;15806;53.548;9.964;2023-04-23T10:18:02;12.63;;;6.18;;
28613;SDS011;15806;53.548;9.964;2023-04-23T10:19:44;16.27;;;7.45;;